Weather at Dansville Municipal Airport

Public forecast

Using degrees Fahrenheit for public forecast. Weather courtesy of forecast.io.

Current aviation weather report (METAR) for Dansville Municipal Airport

Retrieved 2020/11/23 17:54 UTC (7 minutes ago):

KDSV 231754Z AUTO 31007KT 10SM SCT033 BKN040 OVC060 06/M01 A3010 RMK AO2 SLP204 T00561011 10067 20028 55006

Closest aviation forecast (TAF) to Dansville Municipal Airport

Closest forecast is Greater Rochester International Airport, 33.0 nm (61.0 km) N. Retrieved 2020/11/23 18:42 UTC (0 seconds ago):

TAF KROC 231739Z 2318/2418 28012KT P6SM BKN040 FM231900 28012KT P6SM BKN015 FM232300 28013KT P6SM BKN035 FM240500 30010KT P6SM VCSH BKN015 FM241200 34006KT P6SM BKN020